createdAt,value
2023-05-22T00:02:14.953Z,100376.13
2023-05-22T00:07:17.069Z,100383.38
2023-05-22T00:12:17.766Z,100377.38
2023-05-22T00:17:18.660Z,100376.13
2023-05-22T00:22:21.040Z,100376.31
2023-05-22T00:27:21.868Z,100367.69
2023-05-22T00:32:22.726Z,100365.28
2023-05-22T00:37:25.470Z,100369.00
2023-05-22T00:42:26.405Z,100355.56
2023-05-22T00:47:27.222Z,100368.28
2023-05-22T00:52:29.320Z,100362.59
2023-05-22T00:57:30.077Z,100366.78
2023-05-22T01:02:33.047Z,100360.13
2023-05-22T01:07:37.690Z,100361.53
2023-05-22T01:12:48.818Z,100354.66
2023-05-22T01:17:59.240Z,100367.09
2023-05-22T01:23:54.272Z,100368.25
2023-05-22T01:29:30.273Z,100375.59
2023-05-22T01:34:36.537Z,100380.28
2023-05-22T01:39:38.256Z,100379.72
2023-05-22T01:44:38.988Z,100377.84
2023-05-22T01:49:41.107Z,100370.06
2023-05-22T01:54:47.049Z,100376.56
2023-05-22T01:59:50.764Z,100381.19
2023-05-22T02:04:59.837Z,100381.44
2023-05-22T02:10:02.948Z,100373.69
2023-05-22T02:15:06.957Z,100377.31
2023-05-22T02:20:14.374Z,100384.63
2023-05-22T02:25:18.063Z,100388.25
2023-05-22T02:30:19.544Z,100381.16
2023-05-22T02:35:25.027Z,100368.41
2023-05-22T02:40:26.237Z,100372.75
2023-05-22T02:45:27.173Z,100367.69
2023-05-22T02:50:29.215Z,100362.50
2023-05-22T02:55:29.990Z,100361.78
2023-05-22T03:00:31.260Z,100363.56
2023-05-22T03:05:33.445Z,100364.47
2023-05-22T03:10:34.131Z,100362.00
2023-05-22T03:15:35.054Z,100354.97
2023-05-22T03:20:45.504Z,100359.38
2023-05-22T03:25:46.305Z,100343.69
2023-05-22T03:30:47.561Z,100348.03
2023-05-22T03:35:56.503Z,100344.56
2023-05-22T03:40:57.220Z,100352.22
2023-05-22T03:45:59.350Z,100344.97
2023-05-22T03:51:02.750Z,100340.47
2023-05-22T03:56:03.908Z,100344.50
2023-05-22T04:01:05.382Z,100346.63
2023-05-22T04:06:07.860Z,100335.91
2023-05-22T04:11:11.122Z,100344.94
2023-05-22T04:16:11.874Z,100332.06
2023-05-22T04:21:17.526Z,100336.75
2023-05-22T04:26:20.932Z,100337.91
2023-05-22T04:31:23.091Z,100333.63
2023-05-22T04:36:26.678Z,100335.25
2023-05-22T04:41:27.639Z,100340.81
2023-05-22T04:46:28.740Z,100333.09
2023-05-22T04:51:32.299Z,100337.97
2023-05-22T04:56:36.774Z,100337.78
2023-05-22T05:01:38.750Z,100332.66
2023-05-22T05:06:40.968Z,100331.09
2023-05-22T05:11:41.737Z,100332.41
2023-05-22T05:16:43.319Z,100329.34
2023-05-22T05:21:45.923Z,100338.09
2023-05-22T05:26:47.062Z,100330.25
2023-05-22T05:31:50.205Z,100338.06
2023-05-22T05:37:06.626Z,100333.72
2023-05-22T05:42:07.658Z,100341.31
2023-05-22T05:47:08.559Z,100330.75
2023-05-22T05:52:11.042Z,100336.13
2023-05-22T05:57:11.752Z,100327.19
2023-05-22T06:02:12.821Z,100321.63
2023-05-22T06:07:15.557Z,100325.41
2023-05-22T06:12:21.367Z,100319.41
2023-05-22T06:17:22.281Z,100314.72
2023-05-22T06:22:25.716Z,100305.81
2023-05-22T06:27:27.698Z,100308.91
2023-05-22T06:32:29.442Z,100299.47
2023-05-22T06:37:33.050Z,100297.09
2023-05-22T06:42:34.799Z,100298.00
2023-05-22T06:47:55.825Z,100293.56
2023-05-22T06:52:58.474Z,100292.91
2023-05-22T06:57:59.804Z,100293.47
2023-05-22T07:03:02.015Z,100285.09
2023-05-22T07:08:08.551Z,100292.00
2023-05-22T07:13:09.459Z,100284.38
2023-05-22T07:18:10.883Z,100275.81
2023-05-22T07:23:15.346Z,100278.53
2023-05-22T07:28:16.988Z,100263.19
2023-05-22T07:33:38.920Z,100262.50
2023-05-22T07:38:41.255Z,100252.91
2023-05-22T07:43:41.973Z,100256.41
2023-05-22T07:48:44.881Z,100244.88
2023-05-22T07:53:47.215Z,100243.00
2023-05-22T07:58:48.974Z,100239.84
2023-05-22T08:03:53.097Z,100232.81
2023-05-22T08:08:55.332Z,100225.34
2023-05-22T08:13:58.155Z,100224.13
2023-05-22T08:18:58.971Z,100219.72
2023-05-22T08:24:01.276Z,100220.88
2023-05-22T08:29:02.695Z,100222.91
2023-05-22T08:34:04.715Z,100217.78
2023-05-22T08:39:07.479Z,100211.59
2023-05-22T08:44:08.357Z,100209.16
2023-05-22T08:49:10.049Z,100211.31
2023-05-22T08:54:12.063Z,100203.13
2023-05-22T08:59:13.072Z,100187.63
2023-05-22T09:04:14.633Z,100188.13
2023-05-22T09:09:16.650Z,100191.13
2023-05-22T09:14:17.345Z,100181.50
2023-05-22T09:19:18.166Z,100177.31
2023-05-22T09:24:20.355Z,100178.97
2023-05-22T09:29:21.334Z,100181.00
2023-05-22T09:34:22.594Z,100185.94
2023-05-22T09:39:24.676Z,100176.50
2023-05-22T09:44:26.911Z,100184.84
2023-05-22T09:49:27.984Z,100188.19
2023-05-22T09:54:31.276Z,100182.00
2023-05-22T09:59:34.332Z,100183.28
2023-05-22T10:04:35.807Z,100169.19
2023-05-22T10:09:40.788Z,100171.28
2023-05-22T10:14:41.777Z,100167.28
2023-05-22T10:19:44.709Z,100166.63
2023-05-22T10:24:49.414Z,100163.81
2023-05-22T10:29:57.396Z,100169.41
2023-05-22T10:35:09.903Z,100171.28
2023-05-22T10:40:15.641Z,100168.56
2023-05-22T10:45:17.626Z,100155.59
2023-05-22T10:50:19.132Z,100159.03
2023-05-22T10:55:23.920Z,100151.81
2023-05-22T11:00:25.675Z,100146.16
2023-05-22T11:05:36.407Z,100135.28
2023-05-22T11:10:54.876Z,100136.97
2023-05-22T11:15:57.805Z,100122.81
2023-05-22T11:21:00.843Z,100122.72
2023-05-22T11:26:18.745Z,100121.69
2023-05-22T11:31:19.740Z,100111.13
2023-05-22T11:36:21.404Z,100110.53
2023-05-22T11:41:23.763Z,100098.06
2023-05-22T11:46:25.483Z,100094.50
2023-05-22T11:51:26.495Z,100092.84
2023-05-22T11:56:30.901Z,100085.25
2023-05-22T12:01:31.660Z,100089.84
2023-05-22T12:06:33.508Z,100084.81
2023-05-22T12:11:37.692Z,100078.19
2023-05-22T12:16:38.598Z,100079.75
2023-05-22T12:21:41.009Z,100072.72
2023-05-22T12:26:50.933Z,100069.03
2023-05-22T12:31:52.544Z,100074.09
2023-05-22T12:36:53.278Z,100062.56
2023-05-22T12:41:55.517Z,100065.66
2023-05-22T12:46:56.240Z,100055.63
2023-05-22T12:51:57.144Z,100058.31
2023-05-22T12:56:59.182Z,100052.56
2023-05-22T13:02:02.212Z,100045.28
2023-05-22T13:07:03.185Z,100052.06
2023-05-22T13:12:06.444Z,100039.72
2023-05-22T13:17:07.631Z,100044.84
2023-05-22T13:22:08.944Z,100037.69
2023-05-22T13:27:11.120Z,100033.53
2023-05-22T13:32:13.097Z,100041.22
2023-05-22T13:37:13.852Z,100025.56
2023-05-22T13:42:16.219Z,100019.38
2023-05-22T13:47:17.059Z,100017.75
2023-05-22T13:52:18.127Z,100005.78
2023-05-22T13:57:20.306Z,100009.41
2023-05-22T14:02:21.351Z,99996.47
2023-05-22T14:07:22.187Z,99998.91
2023-05-22T14:12:24.197Z,99994.06
2023-05-22T14:17:24.936Z,99994.09
2023-05-22T14:22:26.863Z,99980.06
2023-05-22T14:27:28.915Z,99976.16
2023-05-22T14:32:29.711Z,99972.53
2023-05-22T14:37:30.653Z,99974.81
2023-05-22T14:42:32.678Z,99972.63
2023-05-22T14:47:33.379Z,99970.94
2023-05-22T14:52:34.043Z,99965.75
2023-05-22T14:57:36.052Z,99966.06
2023-05-22T15:02:37.083Z,99963.47
2023-05-22T15:07:44.536Z,99960.44
2023-05-22T15:12:47.396Z,99966.06
2023-05-22T15:17:50.596Z,99956.75
2023-05-22T15:22:51.426Z,99952.06
2023-05-22T15:27:53.492Z,99947.44
2023-05-22T15:32:54.298Z,99959.53
2023-05-22T15:37:56.989Z,99949.66
2023-05-22T15:43:01.805Z,99941.69
2023-05-22T15:48:02.803Z,99938.78
2023-05-22T15:53:03.649Z,99936.25
2023-05-22T15:58:07.869Z,99934.72
2023-05-22T16:03:09.823Z,99940.88
2023-05-22T16:08:10.989Z,99923.00
2023-05-22T16:13:13.046Z,99927.97
2023-05-22T16:18:13.989Z,99920.72
2023-05-22T16:23:14.682Z,99912.06
2023-05-22T16:28:17.148Z,99914.34
2023-05-22T16:33:20.587Z,99910.25
2023-05-22T16:38:21.273Z,99904.59
2023-05-22T16:43:23.297Z,99903.25
2023-05-22T16:48:24.036Z,99903.44
2023-05-22T16:53:24.837Z,99903.97
2023-05-22T16:58:27.355Z,99907.56
2023-05-22T17:03:28.452Z,99909.16
2023-05-22T17:08:29.588Z,99905.97
2023-05-22T17:13:31.725Z,99912.28
2023-05-22T17:18:32.481Z,99909.06
2023-05-22T17:23:36.964Z,99914.25
2023-05-22T17:28:39.035Z,99923.66
2023-05-22T17:33:39.876Z,99920.94
2023-05-22T17:39:06.330Z,99929.81
2023-05-22T17:44:08.393Z,99926.22
2023-05-22T17:49:09.184Z,99935.69
2023-05-22T17:54:10.109Z,99940.31
2023-05-22T17:59:12.215Z,99934.75
2023-05-22T18:04:12.912Z,99937.25
2023-05-22T18:09:13.746Z,99948.66
2023-05-22T18:14:15.889Z,99944.22
2023-05-22T18:19:16.828Z,99940.97
2023-05-22T18:24:17.578Z,99937.69
2023-05-22T18:29:19.880Z,99939.06
2023-05-22T18:34:20.605Z,99930.09
2023-05-22T18:39:21.502Z,99928.84
2023-05-22T18:44:24.170Z,99935.91
2023-05-22T18:49:24.888Z,99940.16
2023-05-22T18:54:26.091Z,99949.25
2023-05-22T18:59:28.177Z,99953.22
2023-05-22T19:04:29.124Z,99956.44
2023-05-22T19:09:29.954Z,99956.81
2023-05-22T19:14:32.158Z,99963.72
2023-05-22T19:19:33.292Z,99963.72
2023-05-22T19:24:34.179Z,99966.47
2023-05-22T19:29:36.234Z,99962.09
2023-05-22T19:34:36.979Z,99962.47
2023-05-22T19:39:37.911Z,99976.00
2023-05-22T19:44:39.940Z,99971.16
2023-05-22T19:49:40.719Z,99980.16
2023-05-22T19:54:41.448Z,99985.94
2023-05-22T19:59:43.489Z,99991.34
2023-05-22T20:04:44.630Z,99987.28
2023-05-22T20:09:45.371Z,100000.16
2023-05-22T20:14:47.407Z,99996.03
2023-05-22T20:19:48.145Z,99987.53
2023-05-22T20:24:48.907Z,99980.69
2023-05-22T20:29:51.218Z,99980.28
2023-05-22T20:34:52.421Z,99979.91
2023-05-22T20:39:53.189Z,99980.66
2023-05-22T20:44:55.345Z,99978.78
2023-05-22T20:49:56.073Z,99969.91
2023-05-22T20:54:56.983Z,99976.03
2023-05-22T20:59:59.402Z,99961.47
2023-05-22T21:05:00.196Z,99962.25
2023-05-22T21:10:00.907Z,99961.56
2023-05-22T21:15:02.939Z,99960.81
2023-05-22T21:20:05.711Z,99964.06
2023-05-22T21:25:07.483Z,99966.03
2023-05-22T21:30:13.094Z,99964.94
2023-05-22T21:35:13.869Z,99962.34
2023-05-22T21:40:14.737Z,99953.22
2023-05-22T21:45:16.909Z,99963.19
2023-05-22T21:50:17.752Z,99957.84
2023-05-22T21:55:18.536Z,99956.81
2023-05-22T22:00:20.797Z,99956.66
2023-05-22T22:05:21.648Z,99957.19
2023-05-22T22:10:22.484Z,99957.84
2023-05-22T22:15:24.701Z,99964.16
2023-05-22T22:20:39.496Z,99968.91
2023-05-22T22:25:44.660Z,99972.66
2023-05-22T22:30:47.874Z,99960.06
2023-05-22T22:35:48.777Z,99958.44
2023-05-22T22:40:49.474Z,99970.84
2023-05-22T22:45:51.569Z,99976.31
2023-05-22T22:50:52.972Z,99978.13
2023-05-22T22:55:56.910Z,99964.91
2023-05-22T23:00:59.082Z,99972.09
2023-05-22T23:05:59.745Z,99965.53
2023-05-22T23:11:00.521Z,99973.28
2023-05-22T23:16:02.515Z,99967.75
2023-05-22T23:21:03.219Z,99950.34
2023-05-22T23:26:03.891Z,99932.81
2023-05-22T23:31:06.146Z,99932.41
2023-05-22T23:36:07.128Z,99937.91
2023-05-22T23:41:07.811Z,99940.38
2023-05-22T23:46:09.862Z,99933.50
2023-05-22T23:51:14.403Z,99934.09
2023-05-22T23:56:15.795Z,99943.09
